Time;durP1;ratioP1;P1;durP2;ratioP2;P2;SDS_P1;SDS_P2;PMS_P1;PMS_P2;Temp;Humidity;BMP_temperature;BMP_pressure;BME280_temperature;BME280_humidity;BME280_pressure;Samples;Min_cycle;Max_cycle;Signal;HPM_P1;HPM_P2
2021/09/15 00:02:07;;;;;;;11.05;9.40;;;;;;;;;;5065266;28;20020;-72
2021/09/15 00:04:33;;;;;;;10.68;9.57;;;;;;;;;;5066646;28;20028;-70
2021/09/15 00:06:59;;;;;;;9.80;8.93;;;;;;;;;;5066921;28;20035;-72
2021/09/15 00:09:26;;;;;;;10.63;9.55;;;;;;;;;;5066908;28;20491;-72
2021/09/15 00:11:52;;;;;;;10.02;9.00;;;;;;;;;;5066312;28;20368;-70
2021/09/15 00:14:18;;;;;;;10.98;9.88;;;;;;;;;;5066408;28;20023;-72
2021/09/15 00:16:44;;;;;;;10.40;9.32;;;;;;;;;;5065445;28;20032;-72
2021/09/15 00:19:10;;;;;;;11.13;10.02;;;;;;;;;;5065792;28;20107;-73
2021/09/15 00:21:36;;;;;;;11.15;10.00;;;;;;;;;;5066726;28;20024;-72
2021/09/15 00:24:02;;;;;;;12.13;9.68;;;;;;;;;;5066033;28;20543;-70
2021/09/15 00:26:29;;;;;;;10.32;9.40;;;;;;;;;;5063655;28;20047;-76
2021/09/15 00:28:55;;;;;;;9.95;9.05;;;;;;;;;;5066551;28;20369;-72
2021/09/15 00:31:21;;;;;;;10.52;9.57;;;;;;;;;;5066786;28;20024;-72
2021/09/15 00:33:47;;;;;;;10.90;9.90;;;;;;;;;;5064170;28;20029;-72
2021/09/15 00:36:13;;;;;;;12.10;9.70;;;;;;;;;;5066114;28;20024;-71
2021/09/15 00:38:39;;;;;;;10.98;9.95;;;;;;;;;;5066341;28;20085;-70
2021/09/15 00:41:06;;;;;;;12.23;9.90;;;;;;;;;;5066540;28;20468;-71
2021/09/15 00:43:32;;;;;;;10.80;9.80;;;;;;;;;;5066218;28;20483;-71
2021/09/15 00:45:58;;;;;;;11.02;9.93;;;;;;;;;;5065575;28;20561;-70
2021/09/15 00:48:25;;;;;;;10.45;9.40;;;;;;;;;;5064229;28;20021;-71
2021/09/15 00:50:51;;;;;;;10.43;9.40;;;;;;;;;;5066437;28;20056;-72
2021/09/15 00:53:18;;;;;;;11.73;9.48;;;;;;;;;;5053708;28;20239;-73
2021/09/15 00:55:44;;;;;;;11.25;9.50;;;;;;;;;;5070810;28;20569;-70
2021/09/15 00:58:10;;;;;;;10.93;9.93;;;;;;;;;;5068461;28;20024;-71
2021/09/15 01:00:36;;;;;;;15.60;10.25;;;;;;;;;;5070414;28;20056;-72
2021/09/15 01:03:02;;;;;;;10.95;9.90;;;;;;;;;;5070307;28;20048;-71
2021/09/15 01:05:28;;;;;;;11.18;10.18;;;;;;;;;;5070123;28;20104;-71
2021/09/15 01:07:55;;;;;;;10.50;9.50;;;;;;;;;;5070362;28;20021;-70
2021/09/15 01:10:22;;;;;;;11.70;10.15;;;;;;;;;;5069616;28;20492;-71
2021/09/15 01:12:48;;;;;;;13.02;10.65;;;;;;;;;;5068608;28;20024;-71
2021/09/15 01:15:14;;;;;;;11.65;10.05;;;;;;;;;;5069592;28;20028;-70
2021/09/15 01:17:40;;;;;;;11.20;10.10;;;;;;;;;;5070315;28;20031;-73
2021/09/15 01:20:07;;;;;;;10.55;9.55;;;;;;;;;;5069714;28;20381;-72
2021/09/15 01:22:33;;;;;;;11.55;10.45;;;;;;;;;;5069877;28;20017;-72
2021/09/15 01:24:59;;;;;;;11.65;10.65;;;;;;;;;;5068836;28;20476;-71
2021/09/15 01:27:25;;;;;;;12.90;10.65;;;;;;;;;;5068855;28;20373;-72
2021/09/15 01:29:51;;;;;;;11.75;10.45;;;;;;;;;;5070145;28;20501;-73
2021/09/15 01:32:17;;;;;;;12.70;10.48;;;;;;;;;;5069380;28;20522;-72
2021/09/15 01:34:45;;;;;;;11.48;10.35;;;;;;;;;;5062002;28;20036;-71
2021/09/15 01:37:12;;;;;;;12.43;11.27;;;;;;;;;;5067522;28;20384;-71
2021/09/15 01:39:39;;;;;;;14.05;10.02;;;;;;;;;;5069424;28;20035;-72
2021/09/15 01:42:06;;;;;;;12.27;10.75;;;;;;;;;;5069550;28;20448;-72
2021/09/15 01:44:32;;;;;;;11.32;10.32;;;;;;;;;;5065946;28;20032;-71
2021/09/15 01:47:00;;;;;;;10.90;9.90;;;;;;;;;;5068450;28;20181;-72
2021/09/15 01:49:28;;;;;;;12.48;10.73;;;;;;;;;;5069672;28;20651;-72
2021/09/15 01:51:54;;;;;;;10.98;9.88;;;;;;;;;;5069645;28;20059;-73
2021/09/15 01:54:20;;;;;;;13.25;10.48;;;;;;;;;;5069174;28;20053;-71
2021/09/15 01:56:46;;;;;;;13.77;10.18;;;;;;;;;;5068084;28;20020;-70
2021/09/15 01:59:12;;;;;;;11.88;10.63;;;;;;;;;;5059287;28;20036;-72
2021/09/15 02:01:39;;;;;;;11.00;10.05;;;;;;;;;;5067989;28;20031;-72
2021/09/15 02:04:05;;;;;;;10.98;9.88;;;;;;;;;;5061846;28;20029;-72
2021/09/15 02:06:31;;;;;;;11.32;10.25;;;;;;;;;;5068024;28;20540;-72
2021/09/15 02:08:58;;;;;;;11.85;10.50;;;;;;;;;;5067365;28;20476;-71
2021/09/15 02:11:24;;;;;;;12.52;10.20;;;;;;;;;;5069057;28;20024;-72
2021/09/15 02:13:50;;;;;;;11.52;10.38;;;;;;;;;;5069204;28;20074;-70
2021/09/15 02:16:17;;;;;;;10.95;9.85;;;;;;;;;;5068796;28;20024;-71
2021/09/15 02:18:44;;;;;;;11.68;10.68;;;;;;;;;;5068759;28;20131;-71
2021/09/15 02:21:10;;;;;;;10.75;9.68;;;;;;;;;;5067456;28;20056;-72
2021/09/15 02:23:36;;;;;;;12.02;10.23;;;;;;;;;;5065717;28;20029;-72
2021/09/15 02:26:03;;;;;;;11.00;9.98;;;;;;;;;;5068775;28;20036;-72
2021/09/15 02:28:29;;;;;;;10.40;9.35;;;;;;;;;;5068681;28;20051;-71
2021/09/15 02:30:55;;;;;;;10.93;9.45;;;;;;;;;;5068084;28;20024;-72
2021/09/15 02:33:21;;;;;;;11.55;10.45;;;;;;;;;;5067389;28;20021;-72
2021/09/15 02:35:47;;;;;;;11.40;10.13;;;;;;;;;;5068244;28;20036;-71
2021/09/15 02:38:13;;;;;;;10.73;9.52;;;;;;;;;;5067903;28;20020;-71
2021/09/15 02:40:40;;;;;;;10.63;9.73;;;;;;;;;;5068795;28;20474;-71
2021/09/15 02:43:06;;;;;;;11.95;10.50;;;;;;;;;;5068495;28;20012;-72
2021/09/15 02:45:32;;;;;;;11.70;9.75;;;;;;;;;;5065774;28;20029;-71
2021/09/15 02:47:58;;;;;;;11.43;10.23;;;;;;;;;;5066831;28;20022;-71
2021/09/15 02:50:24;;;;;;;11.55;9.88;;;;;;;;;;5066818;28;20028;-72
2021/09/15 02:52:51;;;;;;;10.90;9.90;;;;;;;;;;5067578;28;20047;-72
2021/09/15 02:55:17;;;;;;;11.02;9.93;;;;;;;;;;5068450;28;20361;-72
2021/09/15 02:57:43;;;;;;;13.63;10.45;;;;;;;;;;5061066;28;20540;-72
2021/09/15 03:00:09;;;;;;;12.77;10.40;;;;;;;;;;5057531;28;20198;-70
2021/09/15 03:02:36;;;;;;;10.98;9.80;;;;;;;;;;5059428;28;20039;-73
2021/09/15 03:05:02;;;;;;;11.35;10.25;;;;;;;;;;5060394;28;20036;-72
2021/09/15 03:07:28;;;;;;;10.45;9.50;;;;;;;;;;5060831;28;20029;-70
2021/09/15 03:09:54;;;;;;;10.43;9.43;;;;;;;;;;5060202;28;20038;-72
2021/09/15 03:12:20;;;;;;;12.20;10.95;;;;;;;;;;5060452;28;20023;-71
2021/09/15 03:14:46;;;;;;;10.73;9.63;;;;;;;;;;5059010;28;20046;-72
2021/09/15 03:17:13;;;;;;;10.18;9.00;;;;;;;;;;5060262;28;20029;-72
2021/09/15 03:19:39;;;;;;;11.15;10.02;;;;;;;;;;5058577;28;20040;-72
2021/09/15 03:22:05;;;;;;;10.52;9.38;;;;;;;;;;5059856;28;20028;-72
2021/09/15 03:24:31;;;;;;;11.13;10.02;;;;;;;;;;5060280;28;20081;-72
2021/09/15 03:26:58;;;;;;;10.88;9.75;;;;;;;;;;5059740;28;20024;-73
2021/09/15 03:29:24;;;;;;;13.02;10.35;;;;;;;;;;5058887;28;20081;-72
2021/09/15 03:31:50;;;;;;;11.23;10.05;;;;;;;;;;5059838;28;20024;-73
2021/09/15 03:34:17;;;;;;;11.63;10.52;;;;;;;;;;5051853;28;20039;-72
2021/09/15 03:36:43;;;;;;;11.70;10.60;;;;;;;;;;5060325;28;20028;-72
2021/09/15 03:39:09;;;;;;;10.80;9.80;;;;;;;;;;5059616;28;20034;-72
2021/09/15 03:41:35;;;;;;;11.13;10.02;;;;;;;;;;5058946;28;20047;-72
2021/09/15 03:44:01;;;;;;;11.80;10.60;;;;;;;;;;5060340;28;20032;-72
2021/09/15 03:46:27;;;;;;;14.65;11.07;;;;;;;;;;5059762;28;20127;-72
2021/09/15 03:48:53;;;;;;;12.88;10.90;;;;;;;;;;5058635;28;20612;-71
2021/09/15 03:51:19;;;;;;;12.50;11.20;;;;;;;;;;5060058;28;20036;-71
2021/09/15 03:53:46;;;;;;;11.82;10.63;;;;;;;;;;5059866;28;20024;-71
2021/09/15 03:56:12;;;;;;;11.32;10.20;;;;;;;;;;5059345;28;20046;-73
2021/09/15 03:58:38;;;;;;;11.98;9.93;;;;;;;;;;5058255;28;20032;-70
2021/09/15 04:01:04;;;;;;;11.98;10.73;;;;;;;;;;5062335;28;20028;-71
2021/09/15 04:03:30;;;;;;;12.10;10.90;;;;;;;;;;5061851;28;20070;-71
2021/09/15 04:05:56;;;;;;;11.57;10.10;;;;;;;;;;5061838;28;20040;-71
2021/09/15 04:08:22;;;;;;;11.75;10.55;;;;;;;;;;5059857;28;20610;-71
2021/09/15 04:10:49;;;;;;;12.25;9.98;;;;;;;;;;5061924;28;20028;-72
2021/09/15 04:13:15;;;;;;;11.63;10.43;;;;;;;;;;5061673;28;20039;-70
2021/09/15 04:15:41;;;;;;;10.55;9.55;;;;;;;;;;5061416;28;20067;-71
2021/09/15 04:18:07;;;;;;;10.95;9.25;;;;;;;;;;5061653;28;20028;-72
2021/09/15 04:20:33;;;;;;;10.60;9.52;;;;;;;;;;5060814;28;20047;-72
2021/09/15 04:23:00;;;;;;;9.57;8.63;;;;;;;;;;5063695;28;20107;-73
2021/09/15 04:31:17;;;;;;;11.20;9.20;;;;;;;;;;5067759;28;20045;-72
2021/09/15 04:33:43;;;;;;;10.73;9.75;;;;;;;;;;5045699;28;20029;-72
2021/09/15 04:36:09;;;;;;;9.90;8.90;;;;;;;;;;5047185;28;20102;-73
2021/09/15 04:38:37;;;;;;;10.23;9.23;;;;;;;;;;5047152;28;20105;-72
2021/09/15 04:41:03;;;;;;;11.40;10.20;;;;;;;;;;5047113;28;20531;-72
2021/09/15 04:43:29;;;;;;;11.15;10.15;;;;;;;;;;5046683;28;20694;-71
2021/09/15 04:45:55;;;;;;;11.00;9.80;;;;;;;;;;5047299;28;20029;-73
2021/09/15 04:48:22;;;;;;;11.90;10.80;;;;;;;;;;5047513;28;20400;-73
2021/09/15 04:50:48;;;;;;;15.15;11.50;;;;;;;;;;5045555;28;20106;-71
2021/09/15 04:53:14;;;;;;;15.00;10.90;;;;;;;;;;5052727;28;20025;-71
2021/09/15 04:55:40;;;;;;;13.52;10.35;;;;;;;;;;5066336;28;20024;-72
2021/09/15 04:58:06;;;;;;;11.65;10.43;;;;;;;;;;5050970;28;20033;-73
2021/09/15 05:00:33;;;;;;;10.88;9.85;;;;;;;;;;5048065;28;20117;-72
2021/09/15 05:02:59;;;;;;;11.85;9.65;;;;;;;;;;5046440;28;20056;-72
2021/09/15 05:05:26;;;;;;;10.40;9.38;;;;;;;;;;5048967;28;20044;-72
2021/09/15 05:07:53;;;;;;;10.13;9.18;;;;;;;;;;5044328;28;20025;-70
2021/09/15 05:10:24;;;;;;;9.85;8.88;;;;;;;;;;5059908;28;20025;-73
2021/09/15 05:12:51;;;;;;;10.50;9.48;;;;;;;;;;5059841;28;20083;-71
2021/09/15 05:15:17;;;;;;;10.93;9.82;;;;;;;;;;5058117;28;20587;-72
2021/09/15 05:17:43;;;;;;;10.32;9.32;;;;;;;;;;5034992;28;20477;-71
2021/09/15 05:20:10;;;;;;;11.60;10.27;;;;;;;;;;5047574;28;20051;-71
2021/09/15 05:22:36;;;;;;;11.05;9.95;;;;;;;;;;5062605;28;20488;-72
2021/09/15 05:25:02;;;;;;;11.60;10.60;;;;;;;;;;5053875;28;20048;-71
2021/09/15 05:27:28;;;;;;;13.55;11.65;;;;;;;;;;5046471;28;20021;-72
2021/09/15 05:29:55;;;;;;;14.80;11.35;;;;;;;;;;5048268;28;20035;-74
2021/09/15 05:32:21;;;;;;;11.50;10.32;;;;;;;;;;5048117;28;20107;-71
2021/09/15 05:34:47;;;;;;;11.48;10.32;;;;;;;;;;5047703;28;20457;-72
2021/09/15 05:37:13;;;;;;;11.52;10.40;;;;;;;;;;5047891;28;20461;-71
2021/09/15 05:39:39;;;;;;;11.48;10.38;;;;;;;;;;5048835;28;20029;-71
2021/09/15 05:44:41;;;;;;;16.90;10.70;;;;;;;;;;4573543;22;20132;-73
2021/09/15 05:47:08;;;;;;;11.93;10.50;;;;;;;;;;5048472;28;20511;-71
2021/09/15 05:49:34;;;;;;;11.48;10.20;;;;;;;;;;5040885;28;20009;-71
2021/09/15 05:52:00;;;;;;;13.73;12.18;;;;;;;;;;5044108;28;20387;-71
2021/09/15 05:54:26;;;;;;;11.85;10.65;;;;;;;;;;5037898;28;20025;-71
2021/09/15 05:56:52;;;;;;;14.20;11.27;;;;;;;;;;5039948;28;20032;-71
2021/09/15 05:59:18;;;;;;;13.38;11.70;;;;;;;;;;5040696;28;20021;-71
2021/09/15 06:01:44;;;;;;;12.73;11.43;;;;;;;;;;5049670;28;20078;-72
2021/09/15 06:04:11;;;;;;;14.50;11.45;;;;;;;;;;5042166;28;20033;-71
2021/09/15 06:06:37;;;;;;;13.23;11.93;;;;;;;;;;5036851;28;20044;-72
2021/09/15 06:09:03;;;;;;;12.30;9.93;;;;;;;;;;5031524;28;20053;-72
2021/09/15 06:11:29;;;;;;;14.13;10.70;;;;;;;;;;5043368;28;20455;-72
2021/09/15 06:13:55;;;;;;;13.10;11.70;;;;;;;;;;5042673;28;20524;-73
2021/09/15 06:16:22;;;;;;;14.98;11.45;;;;;;;;;;5041962;28;20589;-73
2021/09/15 06:18:48;;;;;;;12.60;11.35;;;;;;;;;;5024057;28;20032;-73
2021/09/15 06:21:15;;;;;;;17.92;11.93;;;;;;;;;;5029205;28;20095;-72
2021/09/15 06:23:41;;;;;;;14.40;12.23;;;;;;;;;;5030533;28;20021;-72
2021/09/15 06:26:07;;;;;;;13.98;11.93;;;;;;;;;;5034528;28;20080;-72
2021/09/15 06:28:33;;;;;;;13.80;11.57;;;;;;;;;;5028071;28;20021;-72
2021/09/15 06:31:01;;;;;;;11.45;10.35;;;;;;;;;;5032947;28;20017;-71
2021/09/15 06:33:27;;;;;;;14.88;11.27;;;;;;;;;;5042723;28;20053;-71
2021/09/15 06:35:54;;;;;;;13.07;9.88;;;;;;;;;;5042648;28;20099;-72
2021/09/15 06:38:20;;;;;;;14.15;10.82;;;;;;;;;;5049109;28;20016;-71
2021/09/15 06:40:47;;;;;;;14.35;10.25;;;;;;;;;;5041630;28;20025;-70
2021/09/15 06:43:13;;;;;;;14.60;10.57;;;;;;;;;;5035673;28;20100;-70
2021/09/15 06:45:39;;;;;;;13.73;9.35;;;;;;;;;;5022663;28;20493;-73
2021/09/15 06:48:05;;;;;;;12.48;10.20;;;;;;;;;;5023362;28;20057;-70
2021/09/15 06:50:32;;;;;;;13.98;10.20;;;;;;;;;;5022973;28;20025;-70
2021/09/15 06:52:58;;;;;;;14.00;11.18;;;;;;;;;;5020792;28;20024;-70
2021/09/15 06:55:24;;;;;;;12.65;11.07;;;;;;;;;;5022695;28;20033;-72
2021/09/15 06:57:51;;;;;;;19.20;13.88;;;;;;;;;;5022480;28;20045;-72
2021/09/15 07:00:20;;;;;;;13.75;12.25;;;;;;;;;;5022839;28;20038;-71
2021/09/15 07:02:47;;;;;;;14.82;13.23;;;;;;;;;;5022494;28;20385;-72
2021/09/15 07:05:13;;;;;;;13.13;11.35;;;;;;;;;;5021174;28;20029;-73
2021/09/15 07:07:40;;;;;;;12.05;10.77;;;;;;;;;;5022883;28;20635;-73
2021/09/15 07:10:07;;;;;;;12.52;10.80;;;;;;;;;;5017736;28;20045;-73
2021/09/15 07:12:33;;;;;;;12.95;10.45;;;;;;;;;;5020042;28;20481;-73
2021/09/15 07:15:00;;;;;;;10.77;9.75;;;;;;;;;;5020384;28;20035;-72
2021/09/15 07:17:26;;;;;;;10.82;9.52;;;;;;;;;;5021987;28;20017;-72
2021/09/15 07:19:52;;;;;;;12.25;9.90;;;;;;;;;;5022085;28;20074;-73
2021/09/15 07:22:18;;;;;;;11.65;10.32;;;;;;;;;;5021946;28;20433;-73
2021/09/15 07:24:44;;;;;;;12.10;10.80;;;;;;;;;;5021106;28;20026;-74
2021/09/15 07:27:10;;;;;;;12.25;10.70;;;;;;;;;;5021512;28;20109;-72
2021/09/15 07:29:36;;;;;;;12.15;10.82;;;;;;;;;;5021183;28;20033;-73
2021/09/15 07:32:03;;;;;;;12.57;9.93;;;;;;;;;;5014613;28;20078;-73
2021/09/15 07:34:29;;;;;;;10.65;9.50;;;;;;;;;;5022094;28;20056;-72
2021/09/15 07:36:55;;;;;;;10.85;9.85;;;;;;;;;;5022235;28;20018;-72
2021/09/15 07:39:21;;;;;;;11.18;9.77;;;;;;;;;;5023347;28;20033;-71
2021/09/15 07:41:48;;;;;;;11.13;9.88;;;;;;;;;;5021496;28;20022;-71
2021/09/15 07:44:14;;;;;;;12.05;10.95;;;;;;;;;;5019453;28;20965;-72
2021/09/15 07:46:40;;;;;;;11.45;10.25;;;;;;;;;;5020646;28;20049;-72
2021/09/15 07:49:06;;;;;;;11.30;10.10;;;;;;;;;;5022277;28;20019;-72
2021/09/15 07:51:32;;;;;;;11.43;10.32;;;;;;;;;;5021577;28;20025;-72
2021/09/15 07:53:59;;;;;;;11.40;9.73;;;;;;;;;;5017080;28;20025;-71
2021/09/15 07:56:25;;;;;;;12.25;10.07;;;;;;;;;;5020094;28;20021;-72
2021/09/15 07:58:51;;;;;;;10.23;9.18;;;;;;;;;;5020414;28;20044;-72
2021/09/15 08:01:21;;;;;;;13.77;10.07;;;;;;;;;;5020072;28;20017;-72
2021/09/15 08:03:47;;;;;;;10.55;9.45;;;;;;;;;;4995965;28;20099;-72
2021/09/15 08:06:13;;;;;;;11.18;9.52;;;;;;;;;;5019194;28;20102;-71
2021/09/15 08:08:39;;;;;;;9.65;8.65;;;;;;;;;;5014205;28;20022;-72
2021/09/15 08:11:05;;;;;;;12.68;9.65;;;;;;;;;;5019927;28;20029;-71
2021/09/15 08:13:32;;;;;;;9.45;8.40;;;;;;;;;;5019332;28;20027;-71
2021/09/15 08:15:58;;;;;;;11.60;7.97;;;;;;;;;;5021703;28;20729;-70
2021/09/15 08:18:24;;;;;;;12.70;8.13;;;;;;;;;;5017076;28;20531;-71
2021/09/15 08:20:50;;;;;;;9.60;8.60;;;;;;;;;;5013356;28;20051;-72
2021/09/15 08:23:18;;;;;;;9.05;7.95;;;;;;;;;;5020756;28;20132;-72
2021/09/15 08:25:44;;;;;;;10.85;9.07;;;;;;;;;;5019340;28;20035;-72
2021/09/15 08:28:11;;;;;;;9.68;7.95;;;;;;;;;;5011815;28;20040;-72
2021/09/15 08:30:37;;;;;;;9.18;8.38;;;;;;;;;;5020778;28;20119;-72
2021/09/15 08:33:03;;;;;;;9.93;8.27;;;;;;;;;;5020669;28;20036;-71
2021/09/15 08:35:30;;;;;;;9.57;8.23;;;;;;;;;;5018862;28;20033;-71
2021/09/15 08:37:57;;;;;;;12.25;9.20;;;;;;;;;;5003088;28;20512;-70
2021/09/15 08:40:23;;;;;;;14.63;9.57;;;;;;;;;;5020495;28;20029;-71
2021/09/15 08:42:49;;;;;;;10.48;9.02;;;;;;;;;;5018885;28;20381;-71
2021/09/15 08:45:15;;;;;;;10.68;9.63;;;;;;;;;;5020671;28;20033;-71
2021/09/15 08:47:42;;;;;;;13.63;10.68;;;;;;;;;;5020222;28;20030;-71
2021/09/15 08:50:09;;;;;;;22.65;11.25;;;;;;;;;;5016271;28;20052;-73
2021/09/15 08:52:36;;;;;;;12.32;10.07;;;;;;;;;;5018759;28;20030;-73
2021/09/15 08:55:02;;;;;;;11.05;10.05;;;;;;;;;;5037223;28;20056;-72
2021/09/15 08:57:28;;;;;;;15.13;11.25;;;;;;;;;;5020089;28;20028;-72
2021/09/15 08:59:55;;;;;;;10.88;9.90;;;;;;;;;;5020953;28;20026;-74
2021/09/15 09:02:22;;;;;;;11.45;10.25;;;;;;;;;;5019264;28;20013;-73
2021/09/15 09:04:54;;;;;;;9.73;8.73;;;;;;;;;;4998273;28;20563;-72
2021/09/15 09:07:21;;;;;;;12.48;10.23;;;;;;;;;;5014625;28;20028;-72
2021/09/15 09:09:48;;;;;;;10.23;9.23;;;;;;;;;;5019096;28;20032;-71
2021/09/15 09:12:18;;;;;;;12.10;10.40;;;;;;;;;;5020884;28;20045;-70
2021/09/15 09:14:45;;;;;;;10.85;9.85;;;;;;;;;;5016951;28;20025;-73
2021/09/15 09:17:29;;;;;;;11.07;9.88;;;;;;;;;;5018312;28;20033;-73
2021/09/15 09:20:13;;;;;;;13.90;8.55;;;;;;;;;;5023221;28;20025;-72
2021/09/15 09:22:58;;;;;;;10.15;9.30;;;;;;;;;;5017810;28;20033;-73
2021/09/15 09:25:25;;;;;;;10.00;8.80;;;;;;;;;;5024616;28;20600;-71
2021/09/15 09:27:52;;;;;;;10.98;9.75;;;;;;;;;;5024425;28;20018;-73
2021/09/15 09:30:31;;;;;;;10.43;9.48;;;;;;;;;;5023517;28;20025;-71
2021/09/15 09:32:57;;;;;;;14.55;9.60;;;;;;;;;;5020629;28;20102;-72
2021/09/15 09:35:23;;;;;;;12.65;9.93;;;;;;;;;;5024020;28;20049;-69
2021/09/15 09:37:50;;;;;;;9.75;8.52;;;;;;;;;;5022281;28;20640;-73
2021/09/15 09:40:19;;;;;;;9.85;8.85;;;;;;;;;;5023012;28;20018;-74
2021/09/15 09:42:46;;;;;;;13.23;8.95;;;;;;;;;;5024148;28;20555;-74
2021/09/15 09:45:15;;;;;;;10.05;9.05;;;;;;;;;;5024043;28;20053;-73
2021/09/15 09:47:43;;;;;;;9.30;8.38;;;;;;;;;;5016794;28;20029;-73
2021/09/15 09:50:12;;;;;;;8.90;8.10;;;;;;;;;;5024529;28;20018;-72
2021/09/15 09:52:54;;;;;;;9.73;8.75;;;;;;;;;;5022739;28;20522;-72
2021/09/15 09:55:20;;;;;;;;;;;;;;;;;;5024804;28;20121;-73
2021/09/15 09:57:50;;;;;;;9.40;8.55;;;;;;;;;;5024086;28;20429;-74
2021/09/15 10:00:17;;;;;;;9.07;8.18;;;;;;;;;;5022603;28;20033;-74
2021/09/15 10:02:43;;;;;;;9.77;8.88;;;;;;;;;;5024357;28;20413;-73
2021/09/15 10:05:10;;;;;;;9.77;8.88;;;;;;;;;;5023927;28;20550;-72
2021/09/15 10:07:38;;;;;;;10.73;9.63;;;;;;;;;;5023667;28;20362;-75
2021/09/15 10:10:04;;;;;;;11.27;9.98;;;;;;;;;;5023674;28;20432;-74
2021/09/15 10:12:31;;;;;;;9.88;8.88;;;;;;;;;;5022076;28;20018;-73
2021/09/15 10:15:01;;;;;;;13.02;10.00;;;;;;;;;;5023283;28;20037;-73
2021/09/15 10:17:30;;;;;;;10.85;9.75;;;;;;;;;;5023987;28;20699;-72
2021/09/15 10:19:57;;;;;;;12.80;10.43;;;;;;;;;;5023472;28;20033;-72
2021/09/15 10:22:30;;;;;;;13.85;10.93;;;;;;;;;;5016137;28;20052;-74
2021/09/15 10:25:00;;;;;;;11.45;10.27;;;;;;;;;;5021366;28;20033;-74
2021/09/15 10:27:27;;;;;;;11.68;10.45;;;;;;;;;;5020169;28;20362;-73
2021/09/15 10:30:17;;;;;;;10.77;9.82;;;;;;;;;;5023058;28;20018;-74
2021/09/15 10:32:47;;;;;;;11.25;10.25;;;;;;;;;;4993340;28;20033;-74
2021/09/15 10:35:14;;;;;;;13.20;10.27;;;;;;;;;;5023621;28;20052;-76
2021/09/15 10:37:40;;;;;;;11.65;10.55;;;;;;;;;;5020960;28;20040;-75
2021/09/15 10:40:11;;;;;;;12.00;10.07;;;;;;;;;;5008236;28;20142;-75
2021/09/15 10:42:38;;;;;;;11.38;10.05;;;;;;;;;;5021428;28;20049;-73
2021/09/15 10:45:13;;;;;;;15.27;11.07;;;;;;;;;;5021784;28;20045;-74
2021/09/15 10:47:40;;;;;;;12.43;10.80;;;;;;;;;;5023258;28;20535;-74
2021/09/15 10:50:08;;;;;;;11.50;10.23;;;;;;;;;;5023420;28;20026;-74
2021/09/15 10:52:38;;;;;;;10.85;9.93;;;;;;;;;;5021561;28;20018;-74
2021/09/15 10:55:14;;;;;;;11.55;10.20;;;;;;;;;;5022944;28;20033;-73
2021/09/15 10:57:43;;;;;;;11.73;10.55;;;;;;;;;;5022405;28;20546;-74
2021/09/15 11:00:16;;;;;;;11.32;10.23;;;;;;;;;;5029073;28;20025;-74
2021/09/15 11:02:42;;;;;;;13.70;11.13;;;;;;;;;;5023011;28;20580;-74
2021/09/15 11:05:27;;;;;;;13.38;10.45;;;;;;;;;;5021673;28;20060;-75
2021/09/15 11:07:54;;;;;;;11.52;10.35;;;;;;;;;;5019588;28;20041;-75
2021/09/15 11:10:38;;;;;;;13.38;11.52;;;;;;;;;;5001341;28;20601;-74
2021/09/15 11:13:04;;;;;;;11.90;10.70;;;;;;;;;;5015669;28;20073;-74
2021/09/15 11:15:32;;;;;;;10.25;9.25;;;;;;;;;;5022668;28;20026;-73
2021/09/15 11:17:58;;;;;;;13.30;11.18;;;;;;;;;;5017307;28;20067;-74
2021/09/15 11:20:26;;;;;;;12.65;11.45;;;;;;;;;;5022038;28;20064;-74
2021/09/15 11:22:53;;;;;;;12.48;11.38;;;;;;;;;;5022464;28;20036;-74
2021/09/15 11:25:25;;;;;;;10.98;9.98;;;;;;;;;;5022876;28;20606;-73
2021/09/15 11:28:27;;;;;;;10.35;9.35;;;;;;;;;;5021343;28;20037;-74
2021/09/15 11:30:53;;;;;;;;;;;;;;;;;;4923053;29;20440;-74
2021/09/15 11:33:28;;;;;;;10.32;9.38;;;;;;;;;;5002652;28;20478;-73
2021/09/15 11:36:02;;;;;;;10.55;9.38;;;;;;;;;;5023003;28;20037;-73
2021/09/15 11:38:30;;;;;;;10.13;9.00;;;;;;;;;;5019482;28;20029;-73
2021/09/15 11:41:25;;;;;;;11.23;9.88;;;;;;;;;;5022091;28;20120;-74
2021/09/15 11:43:51;;;;;;;12.10;9.20;;;;;;;;;;5001558;28;20849;-73
2021/09/15 11:46:18;;;;;;;12.88;8.85;;;;;;;;;;5021223;28;20629;-74
2021/09/15 11:48:45;;;;;;;10.30;9.30;;;;;;;;;;5022277;28;20026;-74
2021/09/15 11:51:18;;;;;;;10.13;9.20;;;;;;;;;;4998181;28;20616;-75
2021/09/15 11:54:05;;;;;;;11.68;9.05;;;;;;;;;;5004046;28;20063;-74
2021/09/15 11:56:41;;;;;;;9.80;8.73;;;;;;;;;;5018825;28;20060;-74
2021/09/15 11:59:07;;;;;;;10.68;9.60;;;;;;;;;;4999843;28;20025;-74
2021/09/15 12:01:36;;;;;;;10.20;9.25;;;;;;;;;;5019763;28;20024;-74
2021/09/15 12:04:06;;;;;;;10.45;9.43;;;;;;;;;;5019534;28;20111;-74
2021/09/15 12:06:32;;;;;;;9.27;8.38;;;;;;;;;;5017565;28;20888;-75
2021/09/15 12:08:59;;;;;;;10.82;9.40;;;;;;;;;;5018885;28;20025;-74
2021/09/15 12:11:30;;;;;;;9.15;8.38;;;;;;;;;;5019809;28;20474;-75
2021/09/15 12:14:00;;;;;;;10.75;9.65;;;;;;;;;;5019453;28;20033;-75
2021/09/15 12:16:30;;;;;;;9.77;8.80;;;;;;;;;;5019275;28;20049;-75
2021/09/15 12:18:59;;;;;;;10.23;9.32;;;;;;;;;;5018615;28;20025;-75
2021/09/15 12:21:26;;;;;;;10.00;9.10;;;;;;;;;;5015861;28;20032;-76
2021/09/15 12:24:01;;;;;;;10.57;9.60;;;;;;;;;;5016754;28;20043;-75
2021/09/15 12:26:28;;;;;;;9.27;8.40;;;;;;;;;;5019214;28;20095;-75
2021/09/15 12:29:02;;;;;;;10.05;9.15;;;;;;;;;;5017654;28;20491;-75
2021/09/15 12:31:37;;;;;;;9.75;8.25;;;;;;;;;;5019004;28;20178;-75
2021/09/15 12:34:03;;;;;;;12.85;8.48;;;;;;;;;;5018351;28;20029;-76
2021/09/15 12:36:30;;;;;;;9.82;8.80;;;;;;;;;;5018112;28;20021;-75
2021/09/15 12:38:57;;;;;;;10.30;9.40;;;;;;;;;;5017165;28;20692;-75
2021/09/15 12:41:24;;;;;;;10.23;9.05;;;;;;;;;;5018438;28;20064;-74
2021/09/15 12:43:50;;;;;;;10.70;9.70;;;;;;;;;;5000905;28;20036;-75
2021/09/15 12:46:24;;;;;;;10.50;9.48;;;;;;;;;;5017384;28;20060;-75
2021/09/15 12:48:50;;;;;;;10.40;9.40;;;;;;;;;;5018511;28;20048;-75
2021/09/15 12:51:20;;;;;;;10.63;9.63;;;;;;;;;;5011307;28;20512;-75
2021/09/15 12:53:49;;;;;;;11.45;10.35;;;;;;;;;;5016159;28;20489;-75
2021/09/15 12:56:16;;;;;;;10.30;9.35;;;;;;;;;;5018225;28;20025;-75
2021/09/15 12:58:42;;;;;;;10.55;9.65;;;;;;;;;;5017441;28;20025;-76
2021/09/15 13:01:08;;;;;;;11.23;10.10;;;;;;;;;;5018404;28;20584;-76
2021/09/15 13:03:38;;;;;;;11.30;10.30;;;;;;;;;;5014512;28;20390;-76
2021/09/15 13:06:05;;;;;;;12.23;11.02;;;;;;;;;;5023089;28;20046;-76
2021/09/15 13:08:33;;;;;;;11.15;10.10;;;;;;;;;;5018863;28;20785;-76
2021/09/15 13:11:00;;;;;;;11.07;10.13;;;;;;;;;;5018510;28;20029;-74
2021/09/15 13:13:27;;;;;;;11.30;10.20;;;;;;;;;;5011418;28;20036;-75
2021/09/15 13:15:53;;;;;;;11.35;10.25;;;;;;;;;;5018263;28;20033;-74
2021/09/15 13:18:20;;;;;;;11.38;10.27;;;;;;;;;;5018310;28;20022;-75
2021/09/15 13:20:46;;;;;;;11.43;10.23;;;;;;;;;;5000722;28;20231;-75
2021/09/15 13:23:17;;;;;;;11.45;10.45;;;;;;;;;;5016877;28;20021;-76
2021/09/15 13:25:43;;;;;;;12.25;11.25;;;;;;;;;;5018891;28;20565;-75
2021/09/15 13:28:10;;;;;;;11.13;10.02;;;;;;;;;;5018779;28;20079;-75
2021/09/15 13:30:36;;;;;;;11.30;10.20;;;;;;;;;;5018377;28;20033;-76
2021/09/15 13:33:02;;;;;;;11.45;10.32;;;;;;;;;;5017094;28;20132;-77
2021/09/15 13:35:28;;;;;;;11.63;10.57;;;;;;;;;;5007854;28;20065;-76
2021/09/15 13:37:54;;;;;;;11.15;10.15;;;;;;;;;;5010632;28;20030;-77
2021/09/15 13:40:21;;;;;;;11.70;10.60;;;;;;;;;;5018625;28;20029;-75
2021/09/15 13:42:47;;;;;;;11.38;10.38;;;;;;;;;;5011643;28;20543;-74
2021/09/15 13:45:15;;;;;;;11.13;10.13;;;;;;;;;;5017185;28;21510;-75
2021/09/15 13:47:45;;;;;;;11.65;10.55;;;;;;;;;;5016684;28;20032;-75
2021/09/15 13:50:15;;;;;;;11.40;10.50;;;;;;;;;;5012817;28;20155;-75
2021/09/15 13:52:41;;;;;;;11.85;10.68;;;;;;;;;;5017051;28;20029;-75
2021/09/15 13:55:07;;;;;;;13.23;11.23;;;;;;;;;;5016759;28;20649;-75
2021/09/15 13:57:34;;;;;;;11.38;10.30;;;;;;;;;;5018278;28;20716;-75
2021/09/15 14:00:00;;;;;;;11.93;10.82;;;;;;;;;;5010886;28;20045;-75
2021/09/15 14:02:26;;;;;;;11.48;10.50;;;;;;;;;;5013637;28;20101;-75
2021/09/15 14:04:52;;;;;;;13.13;9.90;;;;;;;;;;5020213;28;20026;-74
2021/09/15 14:07:18;;;;;;;11.25;10.18;;;;;;;;;;5019903;28;20385;-75
2021/09/15 14:09:45;;;;;;;11.55;10.40;;;;;;;;;;5021429;28;20028;-74
2021/09/15 14:12:11;;;;;;;11.43;10.27;;;;;;;;;;5019405;28;20021;-75
2021/09/15 14:14:37;;;;;;;10.68;9.60;;;;;;;;;;5013371;28;20029;-75
2021/09/15 14:17:04;;;;;;;14.70;11.45;;;;;;;;;;5020416;28;20052;-75
2021/09/15 14:19:30;;;;;;;11.60;10.50;;;;;;;;;;5020231;28;20029;-75
2021/09/15 14:21:56;;;;;;;12.05;10.88;;;;;;;;;;5021685;28;20160;-75
2021/09/15 14:24:22;;;;;;;11.32;10.27;;;;;;;;;;5019558;28;20650;-75
2021/09/15 14:26:48;;;;;;;11.02;10.02;;;;;;;;;;5021415;28;20048;-75
2021/09/15 14:29:15;;;;;;;11.73;10.63;;;;;;;;;;5019418;28;20030;-75
2021/09/15 14:31:41;;;;;;;12.98;10.80;;;;;;;;;;5018013;28;20021;-75
2021/09/15 14:34:07;;;;;;;12.40;11.15;;;;;;;;;;5019343;28;20121;-74
2021/09/15 14:36:33;;;;;;;11.52;10.15;;;;;;;;;;5017541;28;20022;-75